Time;durP1;ratioP1;P1;durP2;ratioP2;P2;SDS_P1;SDS_P2;PMS_P1;PMS_P2;Temp;Humidity;BMP_temperature;BMP_pressure;BME280_temperature;BME280_humidity;BME280_pressure;Samples;Min_cycle;Max_cycle;Signal;HPM_P1;HPM_P2
2022/02/12 00:00:11;;;;;;;29.27;17.70;;;;;;;1.54;85.55;97647.97;1687127;83;21541;-83
2022/02/12 00:02:39;;;;;;;26.70;16.87;;;;;;;1.52;85.53;97641.66;1687993;83;21594;-83
2022/02/12 00:05:06;;;;;;;39.45;21.90;;;;;;;1.53;85.50;97648.88;1668581;83;21085;-83
2022/02/12 00:07:32;;;;;;;29.52;17.87;;;;;;;1.52;85.34;97658.77;1684434;83;21003;-83
2022/02/12 00:09:57;;;;;;;73.50;33.80;;;;;;;1.49;85.30;97658.50;1690515;83;20984;-83
2022/02/12 00:12:23;;;;;;;27.42;17.55;;;;;;;1.47;85.25;97658.60;1682584;83;21004;-83
2022/02/12 00:14:49;;;;;;;54.00;27.75;;;;;;;1.40;85.09;97665.45;1687863;83;21004;-82
2022/02/12 00:17:15;;;;;;;47.48;23.30;;;;;;;1.37;85.26;97663.09;1695207;83;21003;-83
2022/02/12 00:19:41;;;;;;;81.08;38.42;;;;;;;1.35;85.33;97664.47;1693686;83;21004;-83
2022/02/12 00:22:06;;;;;;;50.52;26.15;;;;;;;1.37;85.40;97669.48;1677137;83;21466;-83
2022/02/12 00:24:32;;;;;;;48.33;24.12;;;;;;;1.24;85.32;97651.48;1685044;83;20997;-83
2022/02/12 00:26:58;;;;;;;27.98;18.75;;;;;;;1.39;85.24;97670.22;1667363;83;20993;-84
2022/02/12 00:29:23;;;;;;;27.67;18.02;;;;;;;1.39;85.26;97679.18;1689010;83;21534;-83
2022/02/12 00:31:49;;;;;;;45.30;26.30;;;;;;;1.43;85.34;97679.35;1692692;82;20959;-83
2022/02/12 00:34:16;;;;;;;47.40;27.17;;;;;;;1.42;85.34;97683.66;1688765;83;20996;-83
2022/02/12 00:36:41;;;;;;;68.12;35.92;;;;;;;1.41;85.29;97684.56;1688197;83;21014;-83
2022/02/12 00:39:08;;;;;;;41.50;27.35;;;;;;;1.39;85.30;97686.86;1688201;83;20993;-83
2022/02/12 00:41:34;;;;;;;69.35;35.17;;;;;;;1.37;85.50;97688.24;1684755;83;20984;-83
2022/02/12 00:44:00;;;;;;;40.40;23.38;;;;;;;1.36;85.38;97690.90;1694017;82;21020;-83
2022/02/12 00:46:26;;;;;;;30.60;20.68;;;;;;;1.40;85.50;97698.30;1681939;83;21040;-83
2022/02/12 00:48:51;;;;;;;62.75;39.05;;;;;;;1.47;85.49;97705.98;1664773;83;21363;-83
2022/02/12 00:51:17;;;;;;;70.37;40.10;;;;;;;1.48;85.35;97705.07;1689658;83;20950;-83
2022/02/12 00:53:43;;;;;;;48.55;24.72;;;;;;;1.48;85.48;97707.63;1690322;83;21033;-83
2022/02/12 00:56:09;;;;;;;33.98;20.82;;;;;;;1.44;85.41;97710.45;1683764;83;21546;-83
2022/02/12 00:58:35;;;;;;;29.10;18.27;;;;;;;1.39;85.59;97712.02;1696183;83;21416;-83
2022/02/12 01:01:00;;;;;;;88.40;37.28;;;;;;;1.37;85.75;97715.59;1685588;83;20973;-83
2022/02/12 01:03:26;;;;;;;37.40;22.82;;;;;;;1.27;85.62;97707.63;1676823;83;21106;-83
2022/02/12 01:05:52;;;;;;;24.12;16.70;;;;;;;1.32;85.67;97717.61;1665666;83;21043;-83
2022/02/12 01:08:18;;;;;;;21.62;16.50;;;;;;;1.30;86.03;97716.42;1692644;82;21034;-83
2022/02/12 01:10:43;;;;;;;24.52;16.95;;;;;;;1.29;85.89;97722.44;1688365;83;21027;-83
2022/02/12 01:13:09;;;;;;;27.98;18.52;;;;;;;1.30;85.99;97720.27;1683163;83;21405;-83
2022/02/12 01:15:35;;;;;;;24.80;17.73;;;;;;;1.34;86.16;97730.69;1685270;83;21026;-83
2022/02/12 01:18:01;;;;;;;34.38;20.70;;;;;;;1.35;86.34;97732.33;1689014;83;20984;-83
2022/02/12 01:20:27;;;;;;;53.55;27.70;;;;;;;1.33;86.17;97724.38;1683383;83;21022;-82
2022/02/12 01:22:53;;;;;;;52.80;27.25;;;;;;;1.37;86.18;97731.78;1684302;83;21386;-83
2022/02/12 01:25:19;;;;;;;24.05;17.60;;;;;;;1.39;86.09;97733.78;1680720;83;20966;-83
2022/02/12 01:27:44;;;;;;;34.95;21.27;;;;;;;1.39;85.99;97739.37;1694405;83;20969;-83
2022/02/12 01:30:11;;;;;;;31.00;19.57;;;;;;;1.39;86.09;97736.80;1686175;83;20985;-83
2022/02/12 01:32:37;;;;;;;26.37;17.27;;;;;;;1.37;86.19;97737.36;1689876;83;21032;-83
2022/02/12 01:35:03;;;;;;;30.48;18.87;;;;;;;1.33;86.19;97738.47;1699462;83;21024;-83
2022/02/12 01:37:29;;;;;;;53.20;26.52;;;;;;;1.32;86.17;97731.70;1700438;83;21025;-83
2022/02/12 01:39:55;;;;;;;52.40;27.20;;;;;;;1.32;86.19;97739.38;1697362;83;20993;-83
2022/02/12 01:42:22;;;;;;;35.83;22.27;;;;;;;1.16;86.15;97718.98;1700445;83;21039;-83
2022/02/12 01:44:48;;;;;;;24.07;16.40;;;;;;;1.27;86.21;97744.75;1698296;83;20977;-83
2022/02/12 01:47:13;;;;;;;23.73;15.83;;;;;;;1.30;86.21;97745.02;1702777;83;20964;-83
2022/02/12 01:49:40;;;;;;;22.52;15.93;;;;;;;1.29;86.20;97742.92;1696455;83;21007;-83
2022/02/12 01:52:08;;;;;;;24.80;17.00;;;;;;;1.29;86.24;97753.16;1698439;83;21033;-83
2022/02/12 01:54:34;;;;;;;27.10;17.00;;;;;;;1.27;86.31;97750.33;1698410;83;21032;-83
2022/02/12 01:57:01;;;;;;;25.05;17.57;;;;;;;1.23;86.27;97747.59;1699894;83;21034;-83
2022/02/12 01:59:27;;;;;;;38.83;22.22;;;;;;;1.23;86.34;97750.97;1642073;86;20991;-83
2022/02/12 02:01:53;;;;;;;26.85;17.07;;;;;;;1.26;86.34;97746.13;1697813;83;20982;-83
2022/02/12 02:04:18;;;;;;;36.85;20.88;;;;;;;1.27;86.24;97746.03;1701073;83;21067;-83
2022/02/12 02:06:45;;;;;;;27.82;18.35;;;;;;;1.29;86.38;97745.48;1676595;83;21433;-83
2022/02/12 02:09:11;;;;;;;33.50;19.32;;;;;;;1.31;86.44;97746.70;1698928;83;20997;-83
2022/02/12 02:11:37;;;;;;;26.73;17.15;;;;;;;1.29;86.47;97745.94;1699873;83;20961;-83
2022/02/12 02:14:03;;;;;;;49.90;27.20;;;;;;;1.26;86.46;97751.24;1696448;83;20978;-82
2022/02/12 02:16:30;;;;;;;63.42;30.52;;;;;;;1.24;86.51;97751.34;1698452;82;21002;-82
2022/02/12 02:18:55;;;;;;;37.05;20.55;;;;;;;1.22;86.55;97755.73;1691680;83;21279;-83
2022/02/12 02:21:26;;;;;;;85.17;39.73;;;;;;;1.22;86.47;97757.47;1689835;83;21388;-83
2022/02/12 02:23:52;;;;;;;55.95;29.00;;;;;;;1.26;86.66;97753.34;1698117;83;20993;-83
2022/02/12 02:26:19;;;;;;;33.45;20.48;;;;;;;1.28;86.60;97761.76;1677568;83;20981;-82
2022/02/12 02:28:47;;;;;;;25.88;17.55;;;;;;;1.24;86.29;97769.27;1640119;86;21349;-82
2022/02/12 02:31:13;;;;;;;48.40;25.57;;;;;;;1.18;86.27;97772.19;1699711;83;21027;-82
2022/02/12 02:33:39;;;;;;;36.05;21.25;;;;;;;1.18;86.58;97769.63;1695536;83;21456;-82
2022/02/12 02:36:05;;;;;;;24.10;17.52;;;;;;;1.17;86.59;97770.09;1694943;83;21018;-82
2022/02/12 02:38:31;;;;;;;19.42;15.70;;;;;;;1.17;86.52;97770.09;1692433;83;21026;-82
2022/02/12 02:40:57;;;;;;;45.50;21.82;;;;;;;1.19;86.49;97786.18;1687558;83;21020;-82
2022/02/12 02:43:23;;;;;;;44.30;23.05;;;;;;;1.25;86.54;97785.45;1630079;86;21005;-83
2022/02/12 02:45:49;;;;;;;21.65;16.25;;;;;;;1.27;86.44;97790.84;1636486;86;21492;-82
2022/02/12 02:48:15;;;;;;;30.48;19.25;;;;;;;1.31;86.50;97788.49;1687946;83;20981;-82
2022/02/12 02:56:10;;;;;;;23.18;16.82;;;;;;;1.24;86.12;97799.16;1690417;83;21057;-83
2022/02/12 02:58:42;;;;;;;26.75;17.62;;;;;;;1.24;86.18;97796.15;1693496;82;21033;-82
2022/02/12 03:01:17;;;;;;;27.85;17.12;;;;;;;1.25;86.18;97809.31;1696121;83;21422;-82
2022/02/12 03:03:46;;;;;;;27.00;16.97;;;;;;;1.24;86.17;97812.79;1699014;83;21135;-83
2022/02/12 03:06:13;;;;;;;24.27;15.15;;;;;;;1.26;86.25;97821.66;1696345;83;21096;-82
2022/02/12 03:08:38;;;;;;;21.93;14.68;;;;;;;1.22;86.10;97828.70;1691853;83;21111;-82
2022/02/12 03:11:09;;;;;;;18.10;13.62;;;;;;;1.15;86.29;97839.77;1702715;82;21514;-82
2022/02/12 03:13:32;;;;;;;23.92;16.93;;;;;;;1.07;86.33;97843.66;1697068;83;21147;-82
2022/02/12 03:15:58;;;;;;;23.18;16.05;;;;;;;0.99;86.48;97849.68;1697438;83;21523;-82
2022/02/12 03:18:25;;;;;;;26.82;16.45;;;;;;;0.97;86.51;97848.45;1695899;83;21120;-82
2022/02/12 03:20:52;;;;;;;22.98;18.12;;;;;;;0.98;86.68;97859.55;1692134;83;20994;-83
2022/02/12 03:23:17;;;;;;;23.25;16.90;;;;;;;0.98;86.76;97866.77;1697305;83;21028;-83
2022/02/12 03:25:43;;;;;;;23.32;16.73;;;;;;;1.01;86.87;97875.55;1692823;83;21064;-82
2022/02/12 03:28:09;;;;;;;26.80;16.57;;;;;;;1.01;87.01;97877.30;1672747;84;21012;-82
2022/02/12 03:30:38;;;;;;;24.15;17.65;;;;;;;0.97;87.07;97875.33;1687310;83;21056;-82
2022/02/12 03:33:05;;;;;;;26.62;18.20;;;;;;;0.96;87.00;97875.42;1689211;83;21035;-82
2022/02/12 03:35:31;;;;;;;26.57;17.90;;;;;;;0.86;87.22;97870.83;1682454;83;21186;-82
2022/02/12 03:38:11;;;;;;;23.83;17.85;;;;;;;0.93;87.16;97876.42;1691046;83;21014;-82
2022/02/12 03:40:39;;;;;;;26.37;17.95;;;;;;;0.97;87.12;97874.52;1693455;83;21099;-82
2022/02/12 03:43:05;;;;;;;29.02;18.75;;;;;;;1.01;87.11;97871.72;1696729;83;21073;-83
2022/02/12 03:45:31;;;;;;;45.52;25.62;;;;;;;1.07;87.17;97877.76;1687067;83;21062;-82
2022/02/12 03:47:57;;;;;;;27.37;19.60;;;;;;;1.10;87.28;97885.72;1694769;83;21065;-82
2022/02/12 03:50:22;;;;;;;28.15;17.27;;;;;;;1.11;87.15;97889.47;1698486;83;21459;-82
2022/02/12 03:52:49;;;;;;;27.45;19.55;;;;;;;1.09;87.19;97887.91;1682354;83;20996;-82
2022/02/12 03:55:16;;;;;;;33.90;23.05;;;;;;;1.08;87.12;97893.94;1689814;83;21086;-83
2022/02/12 03:57:42;;;;;;;34.40;21.17;;;;;;;1.09;87.12;97895.13;1685508;83;21075;-82
2022/02/12 04:00:11;;;;;;;27.17;18.55;;;;;;;1.12;87.14;97903.91;1620763;86;21126;-83
2022/02/12 04:02:38;;;;;;;24.35;19.55;;;;;;;1.16;87.15;97911.81;1694499;84;21021;-82
2022/02/12 04:05:05;;;;;;;31.10;21.10;;;;;;;1.19;87.13;97915.48;1696472;84;21049;-82
2022/02/12 04:07:30;;;;;;;30.35;20.80;;;;;;;1.20;87.10;97914.56;1692750;83;21062;-83
2022/02/12 04:09:56;;;;;;;29.92;20.62;;;;;;;1.18;87.05;97913.83;1699622;83;21445;-82
2022/02/12 04:12:22;;;;;;;30.80;20.27;;;;;;;1.18;87.08;97922.80;1683354;83;21042;-82
2022/02/12 04:14:48;;;;;;;26.05;18.62;;;;;;;1.19;86.97;97921.05;1690953;83;21057;-83
2022/02/12 04:17:15;;;;;;;27.48;18.67;;;;;;;1.23;87.04;97917.86;1636331;86;21446;-83
2022/02/12 04:19:41;;;;;;;28.27;18.92;;;;;;;1.25;86.82;97925.82;1695303;83;21044;-82
2022/02/12 04:22:07;;;;;;;27.70;17.95;;;;;;;1.26;86.79;97930.03;1681449;83;21473;-82
2022/02/12 04:24:32;;;;;;;28.10;18.70;;;;;;;1.22;86.62;97922.62;1697198;84;21074;-83
2022/02/12 04:26:58;;;;;;;24.25;17.55;;;;;;;1.19;86.77;97924.90;1684193;84;20995;-82
2022/02/12 04:29:24;;;;;;;24.43;16.62;;;;;;;1.14;86.73;97927.72;1694765;84;21035;-82
2022/02/12 04:31:49;;;;;;;23.25;16.30;;;;;;;1.13;86.76;97919.64;1692671;84;21795;-82
2022/02/12 04:34:15;;;;;;;25.55;17.75;;;;;;;1.10;86.61;97931.34;1679045;83;21030;-82
2022/02/12 04:36:41;;;;;;;22.45;18.25;;;;;;;1.11;86.86;97930.43;1692006;83;20996;-82
2022/02/12 04:39:07;;;;;;;22.82;16.50;;;;;;;1.14;86.91;97933.30;1695812;83;20977;-82
2022/02/12 04:41:33;;;;;;;23.80;16.60;;;;;;;1.14;86.82;97945.64;1699044;83;21022;-83
2022/02/12 04:43:59;;;;;;;25.77;18.82;;;;;;;1.12;86.93;97946.16;1696664;83;21352;-82
2022/02/12 04:46:25;;;;;;;29.63;19.35;;;;;;;1.10;86.87;97949.27;1697527;83;21003;-82
2022/02/12 04:48:50;;;;;;;20.25;16.35;;;;;;;1.08;86.96;97952.82;1640583;86;21046;-81
2022/02/12 04:51:17;;;;;;;21.95;17.05;;;;;;;1.01;86.33;97953.63;1695332;83;21541;-82
2022/02/12 04:53:43;;;;;;;21.85;17.27;;;;;;;0.97;86.35;97958.97;1684465;83;21043;-82
2022/02/12 04:56:09;;;;;;;24.12;19.75;;;;;;;0.88;86.34;97963.70;1702978;83;21016;-83
2022/02/12 04:58:34;;;;;;;27.87;20.30;;;;;;;0.80;86.66;97964.55;1695318;83;21420;-82
2022/02/12 05:01:01;;;;;;;22.93;17.07;;;;;;;0.78;86.92;97963.81;1687640;83;21052;-83
2022/02/12 05:03:26;;;;;;;24.47;18.27;;;;;;;0.75;87.30;97968.27;1704789;83;20965;-83
2022/02/12 05:05:52;;;;;;;23.10;17.87;;;;;;;0.70;87.08;97971.09;1691190;83;21040;-82
2022/02/12 05:08:18;;;;;;;27.42;19.95;;;;;;;0.66;87.10;97970.06;1669542;83;20987;-82
2022/02/12 05:10:44;;;;;;;22.50;18.30;;;;;;;0.65;87.10;97976.05;1632131;86;21071;-82
2022/02/12 05:13:09;;;;;;;26.93;18.05;;;;;;;0.61;87.05;97976.67;1693075;83;21037;-82
2022/02/12 05:15:35;;;;;;;17.40;11.83;;;;;;;0.60;87.33;97979.69;1701495;83;21402;-82
2022/02/12 05:18:01;;;;;;;19.70;15.78;;;;;;;0.57;86.73;97986.70;1633569;86;20991;-82
2022/02/12 05:20:27;;;;;;;21.07;14.38;;;;;;;0.46;86.13;97992.38;1655007;85;21015;-81
2022/02/12 05:22:53;;;;;;;15.85;12.05;;;;;;;0.43;86.04;97995.55;1660969;85;21543;-82
2022/02/12 05:25:19;;;;;;;14.05;11.25;;;;;;;0.33;84.56;97996.95;1692747;83;20988;-82
2022/02/12 05:27:44;;;;;;;15.40;11.80;;;;;;;0.26;84.30;98000.25;1690141;83;21012;-82
2022/02/12 05:30:11;;;;;;;14.87;12.07;;;;;;;0.19;84.09;98006.59;1694271;83;21065;-83
2022/02/12 05:32:37;;;;;;;16.23;11.30;;;;;;;0.12;83.76;98007.79;1692506;83;21412;-82
2022/02/12 05:35:03;;;;;;;13.40;10.55;;;;;;;0.08;83.83;98019.91;1688144;83;21048;-82
2022/02/12 05:37:29;;;;;;;13.48;11.95;;;;;;;0.08;83.78;98017.80;1677476;83;21486;-83
2022/02/12 05:39:55;;;;;;;14.33;11.43;;;;;;;0.07;83.77;98021.27;1696057;83;20988;-82
2022/02/12 05:42:21;;;;;;;17.45;12.45;;;;;;;0.08;83.91;98030.58;1690266;83;21112;-82
2022/02/12 05:44:49;;;;;;;15.38;11.90;;;;;;;0.08;83.77;98033.13;1686586;83;21335;-82
2022/02/12 05:47:14;;;;;;;25.65;13.05;;;;;;;0.01;83.06;98037.73;1688610;83;21133;-82
2022/02/12 05:49:40;;;;;;;16.35;11.88;;;;;;;-0.02;83.31;98035.31;1695012;83;21094;-82
2022/02/12 05:52:06;;;;;;;14.10;11.75;;;;;;;-0.07;83.13;98037.27;1682693;83;21187;-82
2022/02/12 05:54:32;;;;;;;15.95;13.05;;;;;;;-0.08;83.38;98036.90;1689165;83;21004;-82
2022/02/12 05:56:57;;;;;;;14.83;12.07;;;;;;;-0.07;83.45;98041.93;1683650;83;21414;-82
2022/02/12 05:59:23;;;;;;;17.07;12.60;;;;;;;-0.04;83.23;98043.50;1628849;86;21008;-82
2022/02/12 06:01:49;;;;;;;15.95;12.37;;;;;;;-0.05;83.30;98040.58;1645976;86;21051;-82
2022/02/12 06:04:15;;;;;;;19.25;12.82;;;;;;;-0.07;83.23;98044.94;1641460;86;21041;-82
2022/02/12 06:06:40;;;;;;;18.50;13.10;;;;;;;-0.07;83.41;98047.05;1624425;86;20968;-82
2022/02/12 06:09:06;;;;;;;17.02;11.97;;;;;;;-0.04;83.17;98045.61;1687962;83;20952;-82
2022/02/12 06:11:32;;;;;;;16.87;12.15;;;;;;;-0.04;82.91;98048.62;1665447;83;21026;-82
2022/02/12 06:13:57;;;;;;;15.50;11.30;;;;;;;-0.07;82.81;98051.33;1692782;83;21010;-82
2022/02/12 06:16:23;;;;;;;15.48;11.00;;;;;;;-0.09;82.36;98051.41;1689441;83;21080;-82
2022/02/12 06:18:50;;;;;;;17.25;11.95;;;;;;;-0.11;82.40;98062.16;1685365;83;21046;-82
2022/02/12 06:21:15;;;;;;;18.32;12.10;;;;;;;-0.13;82.55;98058.03;1693053;83;21562;-82
2022/02/12 06:23:41;;;;;;;14.00;10.40;;;;;;;-0.15;82.53;98063.66;1691721;83;21072;-82
2022/02/12 06:26:07;;;;;;;13.95;10.25;;;;;;;-0.17;82.57;98064.98;1684032;83;21062;-82
2022/02/12 06:28:34;;;;;;;14.18;10.23;;;;;;;-0.19;82.43;98059.13;1693882;83;21038;-82
2022/02/12 06:31:03;;;;;;;14.13;9.83;;;;;;;-0.20;82.38;98060.03;1680253;83;21113;-82
2022/02/12 06:33:30;;;;;;;14.18;10.75;;;;;;;-0.21;82.39;98064.77;1686973;83;21353;-82
2022/02/12 06:35:56;;;;;;;14.53;11.20;;;;;;;-0.23;82.32;98072.95;1689733;83;21090;-82
2022/02/12 06:38:22;;;;;;;13.48;11.10;;;;;;;-0.25;82.19;98076.49;1697820;83;21067;-82
2022/02/12 06:40:47;;;;;;;14.73;10.85;;;;;;;-0.23;82.21;98073.41;1698640;83;21352;-82
2022/02/12 06:43:13;;;;;;;13.15;10.20;;;;;;;-0.22;82.20;98073.33;1704468;82;21007;-83
2022/02/12 06:45:40;;;;;;;14.75;10.63;;;;;;;-0.24;82.05;98077.69;1701457;83;21047;-82
2022/02/12 06:48:05;;;;;;;14.53;9.98;;;;;;;-0.25;81.89;98081.16;1703792;83;21079;-83
2022/02/12 06:50:32;;;;;;;14.30;10.95;;;;;;;-0.27;81.76;98084.69;1698723;83;21439;-82
2022/02/12 06:52:59;;;;;;;16.77;11.25;;;;;;;-0.31;81.63;98081.00;1699318;83;21027;-83
2022/02/12 06:55:25;;;;;;;24.37;14.35;;;;;;;-0.33;81.59;98087.91;1700973;83;21401;-82
2022/02/12 06:57:51;;;;;;;15.75;10.72;;;;;;;-0.32;81.73;98088.74;1697983;83;21068;-82
2022/02/12 07:00:18;;;;;;;15.15;11.93;;;;;;;-0.34;81.72;98081.58;1694827;83;21143;-83
2022/02/12 07:02:46;;;;;;;17.85;10.82;;;;;;;-0.28;81.65;98095.35;1700794;83;21076;-83
2022/02/12 07:05:12;;;;;;;12.18;10.38;;;;;;;-0.31;81.39;98099.33;1699421;83;21062;-83
2022/02/12 07:07:47;;;;;;;13.53;10.35;;;;;;;-0.34;81.37;98108.39;1703610;83;20968;-82
2022/02/12 07:10:13;;;;;;;18.12;10.68;;;;;;;-0.38;81.37;98110.27;1694057;83;20995;-82
2022/02/12 07:12:39;;;;;;;13.15;9.65;;;;;;;-0.40;81.32;98117.63;1692958;83;21053;-82
2022/02/12 07:15:05;;;;;;;23.65;14.50;;;;;;;-0.40;81.36;98117.63;1706373;83;21037;-83
2022/02/12 07:17:31;;;;;;;17.10;13.08;;;;;;;-0.46;81.35;98125.59;1696695;83;21053;-83
2022/02/12 07:19:57;;;;;;;18.40;13.60;;;;;;;-0.47;81.66;98120.11;1691116;83;21082;-82
2022/02/12 07:22:26;;;;;;;19.12;14.10;;;;;;;-0.44;81.89;98127.62;1691108;83;21492;-82
2022/02/12 07:24:50;;;;;;;21.33;13.65;;;;;;;-0.41;81.97;98125.74;1701386;83;21111;-82
2022/02/12 07:27:16;;;;;;;22.07;14.38;;;;;;;-0.32;81.90;98129.61;1700955;83;21146;-83
2022/02/12 07:29:42;;;;;;;17.20;12.23;;;;;;;-0.23;82.18;98130.44;1700765;83;21521;-83
2022/02/12 07:32:07;;;;;;;20.97;13.93;;;;;;;-0.14;82.08;98139.41;1684755;83;21034;-82
2022/02/12 07:34:33;;;;;;;17.90;10.93;;;;;;;-0.04;82.16;98137.60;1691802;83;21148;-82
2022/02/12 07:36:59;;;;;;;16.95;12.10;;;;;;;-0.07;81.15;98130.09;1685494;83;20984;-82
2022/02/12 07:39:27;;;;;;;19.82;14.15;;;;;;;-0.04;81.33;98147.00;1625423;86;21320;-82
2022/02/12 07:41:53;;;;;;;17.75;12.58;;;;;;;-0.02;81.47;98153.69;1639395;86;20993;-82
2022/02/12 07:44:19;;;;;;;15.10;11.12;;;;;;;0.09;81.77;98151.08;1636700;86;20996;-83
2022/02/12 07:46:44;;;;;;;17.75;13.15;;;;;;;0.18;81.85;98151.48;1634364;86;21353;-82
2022/02/12 07:49:10;;;;;;;17.00;12.20;;;;;;;0.28;81.63;98156.95;1630285;86;21021;-82
2022/02/12 07:51:36;;;;;;;15.43;11.70;;;;;;;0.37;81.57;98159.53;1625307;86;21083;-82
2022/02/12 07:54:03;;;;;;;20.55;12.18;;;;;;;0.34;80.67;98170.73;1633677;86;20960;-82
2022/02/12 07:56:30;;;;;;;13.35;10.08;;;;;;;0.33;80.29;98169.09;1637938;86;21422;-82
2022/02/12 07:58:56;;;;;;;16.10;10.30;;;;;;;0.35;80.41;98169.01;1636685;85;21060;-82
2022/02/12 08:01:21;;;;;;;13.70;10.03;;;;;;;0.36;79.92;98166.83;1637998;86;21061;-82
2022/02/12 08:03:48;;;;;;;13.25;8.85;;;;;;;0.37;80.11;98164.64;1634527;85;21954;-82
2022/02/12 08:08:58;;;;;;;14.45;9.10;;;;;;;0.28;78.92;98172.30;1631377;86;21044;-81
2022/02/12 08:11:26;;;;;;;14.95;9.95;;;;;;;0.33;79.21;98186.16;1648316;85;21047;-82
2022/02/12 08:13:52;;;;;;;13.53;9.80;;;;;;;0.41;79.62;98183.59;1648885;85;21128;-82
2022/02/12 08:16:19;;;;;;;16.12;10.58;;;;;;;0.50;79.70;98184.44;1651198;85;21035;-82
2022/02/12 08:18:44;;;;;;;15.13;11.83;;;;;;;0.57;79.32;98187.50;1652761;85;21060;-82
2022/02/12 08:21:11;;;;;;;15.23;9.93;;;;;;;0.68;79.10;98192.10;1640513;85;21043;-82
2022/02/12 08:23:37;;;;;;;17.75;12.28;;;;;;;0.86;79.29;98196.30;1646432;85;21095;-82
2022/02/12 08:26:02;;;;;;;14.05;10.65;;;;;;;1.04;79.23;98191.97;1639060;85;21431;-82
2022/02/12 08:28:28;;;;;;;15.18;10.03;;;;;;;1.22;79.05;98195.31;1649870;85;20989;-82
2022/02/12 08:30:55;;;;;;;14.07;8.83;;;;;;;1.30;78.05;98202.98;1638681;85;21041;-81
2022/02/12 08:33:21;;;;;;;13.55;9.75;;;;;;;1.19;76.72;98203.98;1690473;83;21112;-84
2022/02/12 08:35:46;;;;;;;16.80;9.63;;;;;;;1.12;77.39;98200.90;1692653;83;21107;-82
2022/02/12 08:38:12;;;;;;;23.22;14.98;;;;;;;1.15;77.40;98199.94;1689984;83;21395;-82
2022/02/12 08:40:39;;;;;;;19.48;13.13;;;;;;;1.16;77.37;98211.38;1682739;83;21057;-82
2022/02/12 08:43:05;;;;;;;22.15;14.90;;;;;;;1.14;77.62;98213.20;1688638;83;21418;-82
2022/02/12 08:45:31;;;;;;;18.67;12.43;;;;;;;1.11;77.40;98215.89;1677379;83;21000;-82
2022/02/12 08:47:57;;;;;;;13.48;9.90;;;;;;;1.07;77.36;98215.67;1695944;83;21056;-82
2022/02/12 08:50:22;;;;;;;14.15;10.00;;;;;;;1.00;77.12;98214.80;1636768;86;21072;-82
2022/02/12 08:52:48;;;;;;;13.18;9.83;;;;;;;1.01;76.75;98224.95;1623516;86;21503;-82
2022/02/12 08:55:14;;;;;;;16.50;10.63;;;;;;;1.02;76.23;98217.66;1639476;86;21073;-83
2022/02/12 08:57:40;;;;;;;15.50;10.60;;;;;;;1.00;75.94;98228.88;1642665;86;21082;-82
2022/02/12 09:00:10;;;;;;;15.35;10.28;;;;;;;0.97;75.90;98237.52;1637483;86;21030;-82
2022/02/12 09:02:36;;;;;;;26.57;15.08;;;;;;;1.05;76.07;98241.81;1631922;85;21024;-82
2022/02/12 09:05:03;;;;;;;31.70;18.32;;;;;;;1.17;76.17;98242.48;1639521;85;21081;-82
2022/02/12 09:07:29;;;;;;;37.55;20.02;;;;;;;1.27;75.55;98243.27;1644033;85;21026;-82
2022/02/12 09:09:54;;;;;;;59.42;24.30;;;;;;;1.29;74.71;98240.17;1619909;84;21044;-82
2022/02/12 09:12:21;;;;;;;14.53;9.23;;;;;;;1.34;74.36;98243.35;1641026;86;21365;-82
2022/02/12 09:14:47;;;;;;;12.58;8.15;;;;;;;1.40;74.54;98245.58;1690605;83;21392;-82
2022/02/12 09:17:13;;;;;;;9.75;8.18;;;;;;;1.54;75.00;98249.54;1689052;83;21499;-82
2022/02/12 09:19:38;;;;;;;11.28;8.13;;;;;;;1.67;75.10;98251.84;1680448;83;21317;-82
2022/02/12 09:22:04;;;;;;;12.63;8.40;;;;;;;1.79;74.36;98249.92;1679477;83;20994;-82
2022/02/12 09:24:30;;;;;;;10.40;7.05;;;;;;;1.90;74.22;98253.63;1680633;83;20985;-82
2022/02/12 09:26:55;;;;;;;7.22;5.60;;;;;;;1.90;72.97;98259.58;1684174;83;20923;-82
2022/02/12 09:29:22;;;;;;;7.50;5.85;;;;;;;1.89;71.71;98263.05;1637996;86;21048;-83
2022/02/12 09:31:48;;;;;;;7.08;5.33;;;;;;;1.88;71.51;98256.27;1636680;85;21016;-82
2022/02/12 09:34:14;;;;;;;10.30;6.87;;;;;;;1.94;70.74;98260.23;1638878;85;21022;-82
2022/02/12 09:36:40;;;;;;;8.95;5.53;;;;;;;1.94;71.26;98262.80;1643212;85;21056;-82
2022/02/12 09:39:07;;;;;;;6.35;5.22;;;;;;;1.95;70.06;98270.86;1640508;85;21056;-82
2022/02/12 09:41:33;;;;;;;6.05;5.12;;;;;;;1.88;70.13;98266.98;1641584;85;21379;-82
2022/02/12 09:43:59;;;;;;;9.58;5.83;;;;;;;1.87;68.88;98265.33;1649011;85;21078;-82
2022/02/12 09:46:49;;;;;;;8.75;5.78;;;;;;;1.80;69.33;98265.66;1647790;86;21009;-82
2022/02/12 09:49:15;;;;;;;6.53;5.75;;;;;;;1.85;69.31;98264.13;1690570;83;21036;-82
2022/02/12 09:51:40;;;;;;;9.65;6.72;;;;;;;1.94;68.90;98261.52;1692507;83;21038;-82
2022/02/12 09:54:06;;;;;;;10.85;7.50;;;;;;;1.83;68.15;98253.59;1690401;83;20966;-82
2022/02/12 09:56:34;;;;;;;11.03;7.03;;;;;;;1.78;69.69;98249.97;1680241;83;21374;-82
2022/02/12 09:59:00;;;;;;;116.73;40.33;;;;;;;1.86;70.27;98257.27;1680307;84;20992;-82
2022/02/12 10:01:25;;;;;;;81.65;26.97;;;;;;;1.92;70.05;98255.65;1681429;83;21386;-82
2022/02/12 10:03:52;;;;;;;117.00;38.17;;;;;;;1.99;70.26;98257.81;1685466;83;21047;-82
2022/02/12 10:06:41;;;;;;;66.60;25.62;;;;;;;2.10;69.80;98244.39;1688768;83;21135;-82
2022/02/12 10:09:07;;;;;;;52.83;21.57;;;;;;;2.15;69.63;98241.60;1692214;83;21006;-82
2022/02/12 10:11:50;;;;;;;58.78;19.82;;;;;;;2.22;69.05;98246.30;1686015;84;21036;-82
2022/02/12 10:14:18;;;;;;;131.75;41.48;;;;;;;2.16;68.72;98240.23;1632227;86;20996;-82
2022/02/12 10:16:57;;;;;;;86.67;23.80;;;;;;;2.20;68.37;98239.60;1664376;85;21415;-82
2022/02/12 10:19:38;;;;;;;40.90;14.00;;;;;;;2.22;68.41;98241.16;1636353;85;21416;-83
2022/02/12 10:22:15;;;;;;;68.35;22.10;;;;;;;2.10;68.26;98241.83;1660129;85;21415;-82
2022/02/12 10:24:53;;;;;;;18.35;8.15;;;;;;;2.16;67.82;98241.52;1676275;84;21061;-84
2022/02/12 10:27:23;;;;;;;9.68;6.97;;;;;;;2.21;67.05;98247.20;1677608;84;21001;-85
2022/02/12 10:29:51;;;;;;;16.48;7.35;;;;;;;2.20;67.93;98250.69;1687798;83;21128;-83
2022/02/12 10:32:20;;;;;;;11.85;6.42;;;;;;;2.23;68.22;98248.41;1690728;83;21088;-83
2022/02/12 10:34:47;;;;;;;9.18;6.80;;;;;;;2.23;68.57;98256.09;1685848;82;21454;-83
2022/02/12 10:37:18;;;;;;;18.40;10.18;;;;;;;2.32;68.57;98252.59;1700755;83;21125;-83
2022/02/12 10:39:51;;;;;;;12.70;7.40;;;;;;;2.26;66.71;98249.05;1707235;82;21050;-83
2022/02/12 10:42:17;;;;;;;9.80;6.95;;;;;;;2.18;67.51;98247.38;1691015;83;20980;-83
2022/02/12 10:44:45;;;;;;;9.93;6.83;;;;;;;2.15;67.73;98250.58;1709645;83;21001;-82
2022/02/12 10:47:13;;;;;;;9.58;6.45;;;;;;;2.14;67.23;98249.75;1712083;83;21033;-82
2022/02/12 10:49:46;;;;;;;10.40;7.10;;;;;;;2.14;66.93;98245.91;1710377;83;21013;-82
2022/02/12 10:52:12;;;;;;;11.75;7.00;;;;;;;2.09;67.24;98237.16;1698279;83;20984;-82
2022/02/12 10:54:47;;;;;;;11.22;7.30;;;;;;;2.18;67.58;98235.02;1710289;83;21386;-82
2022/02/12 10:57:14;;;;;;;11.30;6.87;;;;;;;2.37;67.00;98239.50;1704579;83;21102;-82
2022/02/12 10:59:42;;;;;;;10.93;6.85;;;;;;;2.59;67.15;98242.50;1706012;83;21424;-82
2022/02/12 11:02:09;;;;;;;6.62;4.80;;;;;;;2.73;65.91;98233.20;1703134;83;21089;-82
2022/02/12 11:04:37;;;;;;;7.35;6.20;;;;;;;2.73;61.91;98233.20;1701563;83;21124;-82
2022/02/12 11:07:05;;;;;;;8.80;6.10;;;;;;;2.56;64.10;98229.02;1686797;83;21568;-82
2022/02/12 11:09:31;;;;;;;34.85;15.28;;;;;;;2.48;64.90;98224.80;1674243;83;21011;-82
2022/02/12 11:12:04;;;;;;;27.30;12.73;;;;;;;2.47;64.96;98224.42;1680203;83;21339;-82
2022/02/12 11:14:35;;;;;;;24.65;13.22;;;;;;;2.38;65.68;98213.75;1694600;83;21382;-82
2022/02/12 11:17:03;;;;;;;9.33;6.85;;;;;;;2.35;65.47;98216.50;1701033;83;21423;-82
2022/02/12 11:19:30;;;;;;;11.35;7.60;;;;;;;2.26;66.22;98220.84;1701158;82;21571;-82
2022/02/12 11:21:56;;;;;;;9.68;7.10;;;;;;;2.24;66.39;98209.02;1700802;83;21057;-82
2022/02/12 11:24:42;;;;;;;11.85;7.70;;;;;;;2.31;66.42;98202.66;1691216;83;20976;-82
2022/02/12 11:27:18;;;;;;;8.48;5.42;;;;;;;2.44;65.91;98202.34;1696564;83;21009;-82
2022/02/12 11:29:44;;;;;;;13.08;7.22;;;;;;;2.42;63.20;98196.44;1701119;83;21399;-82
2022/02/12 11:32:16;;;;;;;11.55;7.10;;;;;;;2.43;64.18;98198.09;1699649;83;21012;-82